»·PEaware :: SWA1523 KLAS-KPHX

SWA1523 :: KLAS-KPHX

FLIGHT INFORMATION

Flight Status: Arrived
Operator:
Southwest Airlines
More flights by this operator :: More flights under this callsign
Pilot: Anonymous 19751 (19751)
Aircraft: BOEING 737-300
(B733)
More flights by this aircraft type
Origin: KLAS McCarran Intl
United States
Destination: KPHX Phoenix Sky Harbor Intl
United States
More flights between these airports :: More routes between these airports
Route: +PRFUM4 PRFUM WOTRO BRUSR1
File this flight plan on PilotEdge
Remarks: Shared cockpit flight IXEG737
Altitude:
(Current/Filed)
35,000ft
Speed:
(Current/Filed)
430kts
Departed: 24-Jul-18 02:07 PM
Arrived: 24-Jul-18 02:59 PM
Distance/Time
Traveled:
222nm/0:52
Distance/Time
To Go:
Arrived

Flight Plot

Page will automatically refresh every two minutes.

Flight plan parsing failed; only flown route is shown


Map Options




Map Legend


Flown Route
Filed Route
Departure Airport
Arrival Airport
Navaid (VOR, NDB)
Fix

Horizontal Profiles

Position Reports

Time Latitude Longitude Heading Altitude Ground
Speed
24-Jul-18 13:30 36.081380 -115.147810 61 2095ft 0kts
24-Jul-18 13:31 36.081380 -115.147810 61 2095ft 0kts
24-Jul-18 13:32 36.081380 -115.147810 61 2095ft 0kts
24-Jul-18 13:33 36.081380 -115.147810 61 2095ft 0kts
24-Jul-18 13:34 36.081380 -115.147810 61 2095ft 0kts
24-Jul-18 13:35 36.081380 -115.147810 61 2095ft 0kts
24-Jul-18 13:36 36.081380 -115.147810 61 2095ft 0kts
24-Jul-18 13:37 36.081380 -115.147810 61 2095ft 0kts
24-Jul-18 13:38 36.081380 -115.147810 61 2095ft 0kts
24-Jul-18 13:39 36.081380 -115.147810 61 2095ft 0kts
24-Jul-18 13:40 36.081380 -115.147810 61 2095ft 0kts
24-Jul-18 13:41 36.081380 -115.147810 61 2095ft 0kts
24-Jul-18 13:42 36.081380 -115.147810 61 2095ft 0kts
24-Jul-18 13:43 36.081380 -115.147810 61 2095ft 0kts
24-Jul-18 13:44 36.081380 -115.147810 61 2095ft 0kts
24-Jul-18 13:45 36.081380 -115.147810 61 2095ft 0kts
24-Jul-18 13:46 36.081380 -115.147810 61 2095ft 0kts
24-Jul-18 13:47 36.081211 -115.148194 68 2097ft 2kts
24-Jul-18 13:48 36.081416 -115.148713 157 2099ft 1kts
24-Jul-18 13:49 36.081433 -115.148722 156 2099ft 0kts
24-Jul-18 13:50 36.081433 -115.148722 156 2099ft 0kts
24-Jul-18 13:51 36.081433 -115.148722 156 2099ft 0kts
24-Jul-18 13:52 36.081433 -115.148722 156 2099ft 0kts
24-Jul-18 13:53 36.081433 -115.148722 156 2099ft 0kts
24-Jul-18 13:54 36.081433 -115.148722 156 2099ft 0kts
24-Jul-18 13:55 36.081433 -115.148722 156 2099ft 0kts
24-Jul-18 13:56 36.081003 -115.149673 270 2103ft 5kts
24-Jul-18 13:57 36.081014 -115.151176 268 2109ft 5kts
24-Jul-18 13:58 36.081041 -115.152782 282 2116ft 4kts
24-Jul-18 13:59 36.084705 -115.156757 334 2121ft 26kts
24-Jul-18 14:00 36.091635 -115.155304 25 2098ft 31kts
24-Jul-18 14:01 36.097685 -115.152082 337 2076ft 13kts
24-Jul-18 14:02 36.097685 -115.154064 205 2081ft 0kts
24-Jul-18 14:03 36.095938 -115.155064 204 2089ft 24kts
24-Jul-18 14:04 36.094710 -115.154187 114 2088ft 0kts
24-Jul-18 14:05 36.094710 -115.154187 114 2088ft 0kts
24-Jul-18 14:06 36.094708 -115.154180 114 2088ft 0kts
24-Jul-18 14:07 36.098110 -115.152705 294 2076ft 22kts
24-Jul-18 14:08 36.079280 -115.164595 205 2193ft 175kts
24-Jul-18 14:09 36.030426 -115.192319 205 4188ft 206kts
24-Jul-18 14:10 35.993814 -115.249794 242 6116ft 234kts
24-Jul-18 14:11 35.939891 -115.289498 165 7640ft 266kts
24-Jul-18 14:12 35.868849 -115.250509 130 9982ft 300kts
24-Jul-18 14:13 35.838054 -115.144427 107 11771ft 351kts
24-Jul-18 14:14 35.824728 -115.024431 85 14343ft 370kts
24-Jul-18 14:15 35.834753 -114.895365 86 16750ft 386kts
24-Jul-18 14:16 35.844715 -114.761851 86 19036ft 399kts
24-Jul-18 14:17 35.854263 -114.623928 92 21208ft 410kts
24-Jul-18 14:18 35.804939 -114.501076 125 22907ft 412kts
24-Jul-18 14:19 35.741764 -114.382437 125 24740ft 420kts
24-Jul-18 14:20 35.677587 -114.261753 126 26483ft 429kts
24-Jul-18 14:21 35.611627 -114.138052 126 28119ft 438kts
24-Jul-18 14:22 35.545343 -114.014176 126 30296ft 430kts
24-Jul-18 14:23 35.478877 -113.891050 126 30383ft 430kts
24-Jul-18 14:24 35.412927 -113.768986 126 30098ft 431kts
24-Jul-18 14:25 35.346782 -113.646759 126 29808ft 432kts
24-Jul-18 14:26 35.280338 -113.524406 126 29520ft 433kts
24-Jul-18 14:27 35.219715 -113.413145 126 29257ft 433kts
24-Jul-18 14:28 35.197699 -113.372866 126 29157ft 434kts
24-Jul-18 14:29 35.130863 -113.251150 126 29143ft 434kts
24-Jul-18 14:30 35.064086 -113.129026 127 29217ft 433kts
24-Jul-18 14:31 34.997023 -113.007731 126 29286ft 431kts
24-Jul-18 14:32 34.930146 -112.886981 126 29286ft 432kts
24-Jul-18 14:33 34.864031 -112.768350 126 29286ft 432kts
24-Jul-18 14:34 34.796974 -112.648195 126 28881ft 433kts
24-Jul-18 14:35 34.729738 -112.528014 125 27401ft 434kts
24-Jul-18 14:36 34.647501 -112.425659 143 25895ft 416kts
24-Jul-18 14:37 34.561673 -112.342573 142 24227ft 385kts
24-Jul-18 14:38 34.479855 -112.262498 142 22472ft 377kts
24-Jul-18 14:39 34.387967 -112.214514 170 20612ft 359kts
24-Jul-18 14:40 34.292753 -112.190293 168 18748ft 342kts
24-Jul-18 14:41 34.203048 -112.167101 168 17136ft 322kts
24-Jul-18 14:42 34.116873 -112.144848 168 15560ft 319kts
24-Jul-18 14:43 34.032881 -112.115402 161 13969ft 314kts
24-Jul-18 14:44 33.951409 -112.082135 161 12379ft 308kts
24-Jul-18 14:45 33.872466 -112.050100 162 11010ft 298kts
24-Jul-18 14:46 33.794010 -112.018375 162 9690ft 296kts
24-Jul-18 14:47 33.718434 -111.987806 162 8750ft 276kts
24-Jul-18 14:48 33.648306 -111.959493 161 8033ft 264kts
24-Jul-18 14:49 33.580865 -111.932241 162 7192ft 245kts
24-Jul-18 14:50 33.528178 -111.893362 97 7057ft 242kts
24-Jul-18 14:51 33.527408 -111.812001 91 7070ft 244kts
24-Jul-18 14:52 33.526102 -111.731043 109 7035ft 243kts
24-Jul-18 14:53 33.470329 -111.703599 179 5616ft 232kts
24-Jul-18 14:54 33.407291 -111.705133 202 5031ft 229kts
24-Jul-18 14:55 33.399341 -111.770395 299 3786ft 231kts
24-Jul-18 14:56 33.423732 -111.832834 281 3208ft 197kts
24-Jul-18 14:57 33.429296 -111.890936 265 2917ft 155kts
24-Jul-18 14:58 33.428921 -111.941996 266 2195ft 152kts
24-Jul-18 14:59 33.428892 -111.991591 267 1328ft 145kts
24-Jul-18 15:00 33.429224 -112.021353 308 1116ft 12kts
24-Jul-18 15:01 33.429815 -112.021655 35 1116ft 5kts
24-Jul-18 15:02 33.429953 -112.015133 90 1119ft 25kts
24-Jul-18 15:03 33.430019 -112.006542 63 1123ft 19kts
24-Jul-18 15:04 33.432158 -112.005168 82 1126ft 15kts
24-Jul-18 15:05 33.433067 -111.998296 28 1123ft 25kts
24-Jul-18 15:06 33.434406 -111.998738 270 1125ft 0kts
24-Jul-18 15:07 33.434406 -111.998738 270 1125ft 0kts
24-Jul-18 15:08 33.434406 -111.998738 270 1125ft 0kts

Navigation Log

Ident Type
Flight plan parsing failed, navigation log unavailable